Linda Fortune — 3FOW6 — position and weather

sailwx.info

Track history (hours):
 
Tides and Currents Weather Stations Pressure Air Temp Water Temp Dewpoint Dewpoint Depression Visibility Wind Speed Wind Dir Waves Ship Positions

Linda Fortune

Last reported at 2017-Feb-23 16:28 UTC. Time now 2017-Feb-28 01:29 UTC.
Position N 02°02' E 102°10'.

Length 281 m; draft 17.9 m.

Type: Cargo ship. MMSI: 352793000.

Date/timePositionNaut miles runAvg speedWind from/ knotsBaromVisibWave heightAir tempDewpointWater temp
2017-Feb-23 16:28N 02°02' E 102°10'1211.0
2017-Feb-23 15:23N 01°55' E 102°20'910.6
2017-Feb-23 14:32N 01°51' E 102°28'1010.1
2017-Feb-23 13:31N 01°46' E 102°37'9 9.8
2017-Feb-23 12:33N 01°41' E 102°45'9 9.5
2017-Feb-23 11:33N 01°37' E 102°54'3210.7
2017-Feb-23 08:31N 01°18' E 103°20'1010.8
2017-Feb-23 07:33N 01°13' E 103°29'1010.0
2017-Feb-23 06:33N 01°11' E 103°39'9 9.5
2017-Feb-23 05:33N 01°11' E 103°49'9 9.0
2017-Feb-23 04:33N 01°14' E 103°57'8 7.9
2017-Feb-23 03:32N 01°17' E 104°04'1 0.1
2017-Feb-22 12:23N 01°18' E 104°05'  
Track history (hours):
 
Tides and Currents Weather Stations Pressure Air Temp Water Temp Dewpoint Dewpoint Depression Visibility Wind Speed Wind Dir Waves Ship Positions

Linda Fortune

Last reported at 2017-Feb-23 16:28 UTC. Time now 2017-Feb-28 01:29 UTC.
Position N 02°02' E 102°10'.

Length 281 m; draft 17.9 m.

Type: Cargo ship. MMSI: 352793000.

Date/timePositionNaut miles runAvg speedWind from/ knotsBaromVisibWave heightAir tempDewpointWater temp
2017-Feb-23 16:28N 02°02' E 102°10'1211.0
2017-Feb-23 15:23N 01°55' E 102°20'910.6
2017-Feb-23 14:32N 01°51' E 102°28'1010.1
2017-Feb-23 13:31N 01°46' E 102°37'9 9.8
2017-Feb-23 12:33N 01°41' E 102°45'9 9.5
2017-Feb-23 11:33N 01°37' E 102°54'3210.7
2017-Feb-23 08:31N 01°18' E 103°20'1010.8
2017-Feb-23 07:33N 01°13' E 103°29'1010.0
2017-Feb-23 06:33N 01°11' E 103°39'9 9.5
2017-Feb-23 05:33N 01°11' E 103°49'9 9.0
2017-Feb-23 04:33N 01°14' E 103°57'8 7.9
2017-Feb-23 03:32N 01°17' E 104°04'1 0.1
2017-Feb-22 12:23N 01°18' E 104°05'  

Dump ship's entire track history